Time;durP1;ratioP1;P1;durP2;ratioP2;P2;SDS_P1;SDS_P2;PMS_P1;PMS_P2;Temp;Humidity;BMP_temperature;BMP_pressure;BME280_temperature;BME280_humidity;BME280_pressure;Samples;Min_cycle;Max_cycle;Signal;HPM_P1;HPM_P2
2021/09/06 00:00:59;;;;;;;;;13.25;12.75;;;;;;;;6370180;22;46932;-79
2021/09/06 00:03:24;;;;;;;;;14.50;12.75;;;;;;;;6370673;22;47266;-79
2021/09/06 00:05:49;;;;;;;;;18.00;14.75;;;;;;;;6369774;22;47807;-79
2021/09/06 00:08:15;;;;;;;;;13.00;12.25;;;;;;;;6370540;22;46889;-79
2021/09/06 00:10:41;;;;;;;;;20.00;13.25;;;;;;;;6370703;22;46860;-79
2021/09/06 00:13:07;;;;;;;;;14.25;10.25;;;;;;;;6370272;22;46905;-80
2021/09/06 00:15:34;;;;;;;;;13.75;12.75;;;;;;;;6369967;22;48219;-79
2021/09/06 00:17:59;;;;;;;;;17.00;13.00;;;;;;;;6370344;22;46922;-79
2021/09/06 00:20:25;;;;;;;;;14.75;13.25;;;;;;;;6340839;22;46718;-79
2021/09/06 00:22:51;;;;;;;;;16.75;15.00;;;;;;;;6369708;22;47130;-80
2021/09/06 00:25:16;;;;;;;;;14.50;13.00;;;;;;;;6370198;22;46849;-80
2021/09/06 00:27:41;;;;;;;;;12.75;11.25;;;;;;;;6340844;22;46725;-80
2021/09/06 00:30:07;;;;;;;;;15.00;13.50;;;;;;;;6370113;22;46754;-80
2021/09/06 00:32:32;;;;;;;;;16.25;15.25;;;;;;;;6341244;22;47085;-80
2021/09/06 00:34:58;;;;;;;;;14.50;14.00;;;;;;;;6370210;22;47934;-80
2021/09/06 00:37:23;;;;;;;;;15.00;13.50;;;;;;;;6371157;22;46908;-80
2021/09/06 00:39:48;;;;;;;;;14.00;14.00;;;;;;;;6343283;22;46996;-80
2021/09/06 00:42:14;;;;;;;;;13.75;12.50;;;;;;;;6371699;22;46781;-80
2021/09/06 00:44:40;;;;;;;;;15.50;14.50;;;;;;;;6371653;22;46968;-80
2021/09/06 00:47:05;;;;;;;;;14.00;11.50;;;;;;;;6371212;22;46737;-80
2021/09/06 00:49:31;;;;;;;;;13.25;11.75;;;;;;;;6371766;22;47273;-80
2021/09/06 00:51:57;;;;;;;;;15.50;11.00;;;;;;;;6342258;22;46934;-80
2021/09/06 00:54:22;;;;;;;;;14.75;14.00;;;;;;;;6371511;22;46842;-79
2021/09/06 00:56:48;;;;;;;;;11.50;11.50;;;;;;;;6371246;22;46979;-79
2021/09/06 00:59:13;;;;;;;;;16.25;14.25;;;;;;;;6371233;22;46895;-79
2021/09/06 01:01:38;;;;;;;;;14.50;12.75;;;;;;;;6371547;22;46910;-79
2021/09/06 01:04:04;;;;;;;;;15.50;15.00;;;;;;;;6371147;22;46883;-80
2021/09/06 01:06:29;;;;;;;;;14.50;14.50;;;;;;;;6371133;22;46686;-79
2021/09/06 01:08:54;;;;;;;;;13.00;12.25;;;;;;;;6371845;22;46792;-79
2021/09/06 01:11:20;;;;;;;;;13.75;12.25;;;;;;;;6371524;22;46739;-79
2021/09/06 01:13:45;;;;;;;;;13.25;12.00;;;;;;;;6371256;22;46828;-79
2021/09/06 01:16:10;;;;;;;;;12.25;12.00;;;;;;;;6370928;22;46728;-79
2021/09/06 01:18:36;;;;;;;;;16.50;15.00;;;;;;;;6371289;22;46773;-79
2021/09/06 01:21:01;;;;;;;;;13.50;11.25;;;;;;;;6342307;22;47249;-79
2021/09/06 01:23:27;;;;;;;;;15.75;14.00;;;;;;;;6371084;22;46894;-79
2021/09/06 01:25:52;;;;;;;;;13.75;13.50;;;;;;;;6371466;22;46719;-79
2021/09/06 01:28:18;;;;;;;;;17.00;15.25;;;;;;;;6371324;22;46856;-79
2021/09/06 01:30:44;;;;;;;;;16.75;12.25;;;;;;;;6371431;22;47110;-79
2021/09/06 01:33:09;;;;;;;;;13.75;12.25;;;;;;;;6371101;22;47722;-79
2021/09/06 01:35:34;;;;;;;;;16.75;14.00;;;;;;;;6370925;22;46905;-79
2021/09/06 01:37:59;;;;;;;;;16.25;15.25;;;;;;;;6371546;22;47049;-79
2021/09/06 01:40:25;;;;;;;;;14.75;13.50;;;;;;;;6371391;22;47117;-79
2021/09/06 01:42:51;;;;;;;;;16.50;14.25;;;;;;;;6371032;22;47451;-79
2021/09/06 01:45:17;;;;;;;;;12.50;12.00;;;;;;;;6371178;22;46953;-79
2021/09/06 01:47:42;;;;;;;;;12.25;11.75;;;;;;;;6371152;22;46948;-79
2021/09/06 01:50:08;;;;;;;;;16.25;15.00;;;;;;;;6371270;22;47181;-79
2021/09/06 01:52:33;;;;;;;;;14.25;13.00;;;;;;;;6370865;22;47510;-79
2021/09/06 01:54:58;;;;;;;;;14.25;11.25;;;;;;;;6371322;22;46813;-79
2021/09/06 01:57:24;;;;;;;;;18.75;14.50;;;;;;;;6370893;22;46859;-79
2021/09/06 01:59:49;;;;;;;;;13.00;13.00;;;;;;;;6371445;22;46662;-79
2021/09/06 02:02:15;;;;;;;;;13.50;13.00;;;;;;;;6371147;22;46809;-79
2021/09/06 02:04:40;;;;;;;;;15.00;13.25;;;;;;;;6371064;22;46860;-79
2021/09/06 02:07:06;;;;;;;;;14.00;12.75;;;;;;;;6341999;22;46738;-79
2021/09/06 02:09:31;;;;;;;;;14.00;13.50;;;;;;;;6342448;22;46713;-79
2021/09/06 02:11:56;;;;;;;;;16.50;15.00;;;;;;;;6371147;22;47865;-80
2021/09/06 02:14:22;;;;;;;;;18.25;15.00;;;;;;;;6342399;22;46857;-79
2021/09/06 02:16:47;;;;;;;;;12.75;12.75;;;;;;;;6371287;22;47024;-79
2021/09/06 02:19:12;;;;;;;;;14.50;11.50;;;;;;;;6371506;22;46856;-79
2021/09/06 02:21:38;;;;;;;;;16.00;15.00;;;;;;;;6341766;22;48312;-79
2021/09/06 02:24:03;;;;;;;;;14.25;13.25;;;;;;;;6370989;22;47036;-79
2021/09/06 02:26:29;;;;;;;;;17.75;14.00;;;;;;;;6371057;22;46923;-79
2021/09/06 02:28:54;;;;;;;;;16.00;16.00;;;;;;;;6371146;22;46869;-79
2021/09/06 02:31:20;;;;;;;;;14.25;14.00;;;;;;;;6342303;22;47184;-79
2021/09/06 02:33:45;;;;;;;;;13.75;13.00;;;;;;;;6371328;22;46921;-79
2021/09/06 02:36:10;;;;;;;;;8.50;4.00;;;;;;;;6371060;22;46866;-79
2021/09/06 02:38:36;;;;;;;;;14.75;14.00;;;;;;;;6371539;22;46737;-79
2021/09/06 02:41:01;;;;;;;;;17.25;15.50;;;;;;;;6371206;22;47397;-79
2021/09/06 02:43:26;;;;;;;;;14.75;13.75;;;;;;;;6371244;22;46887;-79
2021/09/06 02:45:52;;;;;;;;;14.25;14.25;;;;;;;;6371134;22;46921;-79
2021/09/06 02:48:17;;;;;;;;;14.25;13.75;;;;;;;;6371524;22;46781;-79
2021/09/06 02:50:43;;;;;;;;;16.75;14.25;;;;;;;;6370812;22;46903;-79
2021/09/06 02:53:08;;;;;;;;;15.00;15.00;;;;;;;;6371108;22;46796;-79
2021/09/06 02:55:34;;;;;;;;;14.50;13.50;;;;;;;;6371205;22;46701;-79
2021/09/06 02:57:59;;;;;;;;;16.50;15.25;;;;;;;;6370392;22;46702;-79
2021/09/06 03:00:25;;;;;;;;;13.25;13.00;;;;;;;;6371076;22;47533;-79
2021/09/06 03:02:51;;;;;;;;;11.25;9.75;;;;;;;;6370886;22;46891;-79
2021/09/06 03:05:16;;;;;;;;;17.00;14.50;;;;;;;;6370769;22;46700;-79
2021/09/06 03:07:42;;;;;;;;;15.75;13.00;;;;;;;;6371349;22;47248;-80
2021/09/06 03:10:07;;;;;;;;;13.50;13.50;;;;;;;;6370910;22;48081;-80
2021/09/06 03:12:32;;;;;;;;;14.75;13.75;;;;;;;;6342134;22;46880;-80
2021/09/06 03:14:58;;;;;;;;;19.75;14.50;;;;;;;;6371081;22;47601;-80
2021/09/06 03:17:23;;;;;;;;;16.25;15.00;;;;;;;;6342335;22;47247;-80
2021/09/06 03:19:49;;;;;;;;;18.00;15.50;;;;;;;;6370683;22;48083;-79
2021/09/06 03:22:16;;;;;;;;;16.00;12.75;;;;;;;;6370207;22;47052;-79
2021/09/06 03:24:41;;;;;;;;;14.25;14.25;;;;;;;;6370653;22;47026;-79
2021/09/06 03:27:07;;;;;;;;;13.00;13.00;;;;;;;;6370894;22;46977;-79
2021/09/06 03:29:32;;;;;;;;;16.75;14.00;;;;;;;;6370560;22;46931;-79
2021/09/06 03:31:57;;;;;;;;;13.75;13.75;;;;;;;;6370421;22;46840;-79
2021/09/06 03:34:23;;;;;;;;;14.75;13.25;;;;;;;;6370749;22;46881;-79
2021/09/06 03:36:48;;;;;;;;;14.50;13.75;;;;;;;;6370674;22;47097;-79
2021/09/06 03:39:13;;;;;;;;;16.00;15.00;;;;;;;;6370656;22;47937;-79
2021/09/06 03:41:39;;;;;;;;;14.50;12.25;;;;;;;;6370400;22;46774;-79
2021/09/06 03:44:04;;;;;;;;;13.25;12.75;;;;;;;;6370496;22;46898;-79
2021/09/06 03:46:30;;;;;;;;;16.75;15.00;;;;;;;;6341781;22;47194;-79
2021/09/06 03:48:56;;;;;;;;;14.75;13.75;;;;;;;;6370619;22;46759;-79
2021/09/06 03:51:21;;;;;;;;;17.50;15.75;;;;;;;;6370058;22;46729;-79
2021/09/06 03:53:46;;;;;;;;;17.00;15.00;;;;;;;;6342136;22;46959;-79
2021/09/06 03:56:12;;;;;;;;;14.50;13.75;;;;;;;;6370511;22;46673;-79
2021/09/06 03:58:37;;;;;;;;;15.25;14.50;;;;;;;;6370417;22;47725;-79
2021/09/06 04:01:03;;;;;;;;;19.25;16.75;;;;;;;;6370417;22;46712;-79
2021/09/06 04:03:28;;;;;;;;;17.75;15.50;;;;;;;;6370552;22;46946;-79
2021/09/06 04:05:53;;;;;;;;;17.25;16.50;;;;;;;;6370211;22;47307;-79
2021/09/06 04:08:19;;;;;;;;;15.75;15.25;;;;;;;;6370410;22;47629;-79
2021/09/06 04:10:44;;;;;;;;;15.50;13.00;;;;;;;;6371554;22;46705;-79
2021/09/06 04:13:10;;;;;;;;;14.75;13.75;;;;;;;;6371721;22;46937;-79
2021/09/06 04:15:35;;;;;;;;;16.00;14.00;;;;;;;;6372145;22;46976;-79
2021/09/06 04:18:00;;;;;;;;;18.25;15.50;;;;;;;;6371378;22;46871;-79
2021/09/06 04:20:26;;;;;;;;;18.50;18.25;;;;;;;;6371342;22;46727;-79
2021/09/06 04:22:51;;;;;;;;;16.50;15.50;;;;;;;;6371224;22;46814;-79
2021/09/06 04:25:16;;;;;;;;;20.25;16.25;;;;;;;;6371958;22;47053;-79
2021/09/06 04:27:42;;;;;;;;;20.25;15.75;;;;;;;;6371574;22;47723;-79
2021/09/06 04:30:07;;;;;;;;;18.25;16.25;;;;;;;;6371664;22;46957;-79
2021/09/06 04:32:33;;;;;;;;;18.25;16.00;;;;;;;;6371627;22;46883;-79
2021/09/06 04:34:58;;;;;;;;;18.75;15.50;;;;;;;;6342989;22;47159;-79
2021/09/06 04:37:24;;;;;;;;;17.00;17.00;;;;;;;;6371494;22;46824;-79
2021/09/06 04:39:49;;;;;;;;;17.25;15.25;;;;;;;;6371692;22;46859;-79
2021/09/06 04:42:15;;;;;;;;;20.00;19.25;;;;;;;;6371302;22;46670;-79
2021/09/06 04:44:40;;;;;;;;;18.00;17.50;;;;;;;;6371964;22;46676;-79
2021/09/06 04:47:06;;;;;;;;;17.25;17.25;;;;;;;;6371385;22;46872;-79
2021/09/06 04:49:31;;;;;;;;;17.50;17.00;;;;;;;;6371609;22;46839;-79
2021/09/06 04:51:57;;;;;;;;;16.25;14.50;;;;;;;;6371109;22;47367;-79
2021/09/06 04:54:22;;;;;;;;;20.00;15.50;;;;;;;;6372150;22;46672;-79
2021/09/06 04:56:48;;;;;;;;;15.50;15.50;;;;;;;;6371177;22;47585;-79
2021/09/06 04:59:13;;;;;;;;;18.50;18.00;;;;;;;;6371299;22;46767;-79
2021/09/06 05:01:38;;;;;;;;;20.00;20.00;;;;;;;;6371137;22;46812;-79
2021/09/06 05:04:04;;;;;;;;;16.25;14.50;;;;;;;;6371531;22;47120;-79
2021/09/06 05:06:29;;;;;;;;;20.75;18.75;;;;;;;;6370966;22;48161;-79
2021/09/06 05:08:57;;;;;;;;;17.50;15.50;;;;;;;;6371371;22;46950;-79
2021/09/06 05:11:22;;;;;;;;;19.25;16.00;;;;;;;;6372116;22;46945;-79
2021/09/06 05:13:48;;;;;;;;;18.25;13.75;;;;;;;;6371659;22;46922;-79
2021/09/06 05:16:13;;;;;;;;;20.50;18.75;;;;;;;;6371444;22;46861;-79
2021/09/06 05:18:38;;;;;;;;;20.50;19.00;;;;;;;;6371367;22;46709;-79
2021/09/06 05:21:04;;;;;;;;;16.50;16.50;;;;;;;;6370725;22;47057;-79
2021/09/06 05:23:29;;;;;;;;;20.50;18.50;;;;;;;;6342370;22;46931;-79
2021/09/06 05:25:54;;;;;;;;;20.50;19.75;;;;;;;;6371438;22;46842;-79
2021/09/06 05:28:20;;;;;;;;;17.00;17.00;;;;;;;;6370922;22;46672;-79
2021/09/06 05:30:46;;;;;;;;;15.00;12.00;;;;;;;;6343078;22;46745;-79
2021/09/06 05:33:11;;;;;;;;;21.50;19.25;;;;;;;;6371910;22;46755;-79
2021/09/06 05:35:36;;;;;;;;;21.75;19.00;;;;;;;;6371020;22;46815;-79
2021/09/06 05:38:02;;;;;;;;;17.75;17.25;;;;;;;;6373410;22;46971;-78
2021/09/06 05:40:27;;;;;;;;;20.25;17.00;;;;;;;;6371371;22;46755;-78
2021/09/06 05:42:52;;;;;;;;;19.25;17.25;;;;;;;;6371591;22;47098;-78
2021/09/06 05:45:18;;;;;;;;;21.50;18.00;;;;;;;;6371353;22;46717;-78
2021/09/06 05:47:43;;;;;;;;;22.25;18.50;;;;;;;;6371356;22;46908;-78
2021/09/06 05:50:09;;;;;;;;;22.50;19.75;;;;;;;;6371134;22;47311;-79
2021/09/06 05:52:34;;;;;;;;;18.00;15.75;;;;;;;;6342678;22;46888;-79
2021/09/06 05:55:00;;;;;;;;;19.00;18.75;;;;;;;;6370898;22;46970;-79
2021/09/06 05:57:25;;;;;;;;;16.50;16.50;;;;;;;;6370538;22;46992;-78
2021/09/06 05:59:51;;;;;;;;;19.75;16.50;;;;;;;;6371228;22;46825;-78
2021/09/06 06:02:16;;;;;;;;;19.25;16.00;;;;;;;;6371188;22;47190;-79
2021/09/06 06:05:19;;;;;;;;;16.00;16.00;;;;;;;;6370537;22;47978;-86
2021/09/06 06:07:45;;;;;;;;;18.25;18.25;;;;;;;;6211439;22;47071;-81
2021/09/06 06:10:13;;;;;;;;;19.75;16.50;;;;;;;;6338031;22;46911;-81
2021/09/06 07:56:57;;;;;;;;;;;;;;;;;;;;;
2021/09/06 09:13:07;;;;;;;;;9.00;8.25;;;;;;;;5854861;24;47084;-83
2021/09/06 11:15:37;;;;;;;;;;;;;;;;;;;;;
2021/09/06 11:18:34;;;;;;;;;;;;;;;;;;;;;
2021/09/06 11:27:56;;;;;;;;;;;;;;;;;;;;;
2021/09/06 11:33:53;;;;;;;;;14.75;11.00;;;;;;;;6328865;22;47188;-82
2021/09/06 11:36:31;;;;;;;;;13.00;12.00;;;;;;;;6300837;22;46985;-82
2021/09/06 11:39:29;;;;;;;;;;;;;;;;;;;;;
2021/09/06 11:45:21;;;;;;;;;;;;;;;;;;;;;
2021/09/06 11:58:10;;;;;;;;;11.00;10.50;;;;;;;;6251706;22;47701;-82
2021/09/06 12:06:38;;;;;;;;;;;;;;;;;;;;;
2021/09/06 12:16:05;;;;;;;;;6.00;6.00;;;;;;;;6157011;22;47960;-83
2021/09/06 12:22:01;;;;;;;;;;;;;;;;;;;;;
2021/09/06 12:24:57;;;;;;;;;;;;;;;;;;;;;
2021/09/06 12:33:59;;;;;;;;;;;;;;;;;;;;;
2021/09/06 12:36:58;;;;;;;;;;;;;;;;;;;;;
2021/09/06 12:39:46;;;;;;;;;6.25;6.25;;;;;;;;6173572;22;75621;-82
2021/09/06 12:45:29;;;;;;;;;16.00;12.50;;;;;;;;6321952;22;46850;-82
2021/09/06 12:48:28;;;;;;;;;9.00;8.50;;;;;;;;6324008;22;46710;-82
2021/09/06 12:51:03;;;;;;;;;;;;;;;;;;;;;
2021/09/06 12:53:31;;;;;;;;;4.75;4.75;;;;;;;;6338112;22;74637;-82
2021/09/06 12:56:08;;;;;;;;;;;;;;;;;;;;;
2021/09/06 12:58:57;;;;;;;;;4.75;4.75;;;;;;;;6338388;22;67970;-82
2021/09/06 13:04:38;;;;;;;;;;;;;;;;;;;;;
2021/09/06 13:07:29;;;;;;;;;7.75;7.00;;;;;;;;6337885;22;72953;-82
2021/09/06 13:10:14;;;;;;;;;;;;;;;;;;;;;
2021/09/06 13:12:44;;;;;;;;;9.25;8.25;;;;;;;;6337992;22;77349;-81
2021/09/06 13:15:26;;;;;;;;;9.50;9.00;;;;;;;;6337033;22;47007;-81
2021/09/06 13:18:20;;;;;;;;;12.00;11.50;;;;;;;;6337071;22;47010;-82
2021/09/06 13:21:13;;;;;;;;;6.75;5.75;;;;;;;;6336910;22;47930;-82
2021/09/06 13:27:06;;;;;;;;;;;;;;;;;;;;;
2021/09/06 13:29:51;;;;;;;;;10.75;10.50;;;;;;;;6333230;22;72286;-82
2021/09/06 13:32:35;;;;;;;;;5.25;5.25;;;;;;;;6337030;22;46949;-82
2021/09/06 13:35:13;;;;;;;;;;;;;;;;;;;;;
2021/09/06 13:37:54;;;;;;;;;7.00;7.00;;;;;;;;6337934;22;74005;-81
2021/09/06 13:40:26;;;;;;;;;11.00;9.00;;;;;;;;6339337;22;47195;-82
2021/09/06 13:43:15;;;;;;;;;10.75;10.00;;;;;;;;6339543;22;46802;-82
2021/09/06 13:46:00;;;;;;;;;7.25;7.00;;;;;;;;6338701;22;47900;-82
2021/09/06 13:48:28;;;;;;;;;5.50;4.00;;;;;;;;6336836;22;46999;-82
2021/09/06 13:51:26;;;;;;;;;;;;;;;;;;;;;
2021/09/06 13:54:19;;;;;;;;;10.25;9.00;;;;;;;;6336873;22;68848;-82
2021/09/06 13:57:01;;;;;;;;;;;;;;;;;;;;;
2021/09/06 13:59:37;;;;;;;;;2.00;2.00;;;;;;;;6337383;22;75136;-82
2021/09/06 14:02:33;;;;;;;;;;;;;;;;;;;;;
2021/09/06 14:05:11;;;;;;;;;;;;;;;;;;;;;
2021/09/06 14:07:53;;;;;;;;;;;;;;;;;;;;;
2021/09/06 14:10:36;;;;;;;;;;;;;;;;;;;;;
2021/09/06 14:16:21;;;;;;;;;;;;;;;;;;;;;
2021/09/06 14:21:46;;;;;;;;;10.25;9.75;;;;;;;;6337735;22;46951;-81
2021/09/06 14:24:30;;;;;;;;;7.50;6.50;;;;;;;;6339120;22;46820;-81
2021/09/06 14:27:26;;;;;;;;;;;;;;;;;;;;;
2021/09/06 14:29:56;;;;;;;;;7.00;7.00;;;;;;;;6337496;22;76768;-81
2021/09/06 14:32:43;;;;;;;;;;;;;;;;;;;;;
2021/09/06 14:35:11;;;;;;;;;13.00;11.00;;;;;;;;6336918;22;72940;-81
2021/09/06 14:40:31;;;;;;;;;10.75;8.25;;;;;;;;6320895;22;46849;-81
2021/09/06 14:42:59;;;;;;;;;9.50;9.50;;;;;;;;6338584;22;46848;-81
2021/09/06 14:45:42;;;;;;;;;13.75;10.00;;;;;;;;6336530;22;46855;-81
2021/09/06 14:48:20;;;;;;;;;10.50;9.00;;;;;;;;6338914;22;46867;-81
2021/09/06 14:51:06;;;;;;;;;6.25;6.00;;;;;;;;6335954;22;48150;-81
2021/09/06 14:53:44;;;;;;;;;;;;;;;;;;;;;
2021/09/06 14:59:41;;;;;;;;;7.00;6.00;;;;;;;;6315369;22;47049;-81
2021/09/06 15:02:16;;;;;;;;;10.00;10.00;;;;;;;;6338741;22;46950;-81
2021/09/06 15:05:17;;;;;;;;;;;;;;;;;;;;;
2021/09/06 15:09:01;;;;;;;;;;;;;;;;;;;;;
2021/09/06 15:11:27;;;;;;;;;;;;;;;;;;;;;
2021/09/06 15:26:59;;;;;;;;;;;;;;;;;;;;;
2021/09/06 15:30:03;;;;;;;;;;;;;;;;;;;;;
2021/09/06 15:32:41;;;;;;;;;7.50;7.50;;;;;;;;6091685;23;73084;-82
2021/09/06 15:35:29;;;;;;;;;7.50;6.75;;;;;;;;6210979;22;46941;-82
2021/09/06 15:38:15;;;;;;;;;8.00;5.50;;;;;;;;6185945;22;48485;-81
2021/09/06 15:40:53;;;;;;;;;11.00;9.25;;;;;;;;6186178;22;47874;-81
2021/09/06 15:43:31;;;;;;;;;;;;;;;;;;;;;
2021/09/06 15:46:15;;;;;;;;;;;;;;;;;;;;;
2021/09/06 15:51:37;;;;;;;;;8.00;7.00;;;;;;;;6300954;22;46898;-82
2021/09/06 15:54:11;;;;;;;;;9.00;7.50;;;;;;;;6279532;22;46950;-81
2021/09/06 15:56:38;;;;;;;;;10.50;9.00;;;;;;;;6278565;22;47186;-81
2021/09/06 15:59:09;;;;;;;;;5.25;5.25;;;;;;;;6278851;22;48984;-81
2021/09/06 16:01:54;;;;;;;;;5.25;5.00;;;;;;;;6278833;22;46915;-82
2021/09/06 16:04:20;;;;;;;;;6.25;6.25;;;;;;;;6305991;22;46880;-80
2021/09/06 16:06:45;;;;;;;;;5.50;4.50;;;;;;;;6308089;22;46942;-80
2021/09/06 16:09:11;;;;;;;;;5.50;5.50;;;;;;;;6307934;22;47470;-80
2021/09/06 16:11:36;;;;;;;;;3.00;3.00;;;;;;;;6308163;22;46899;-80
2021/09/06 16:14:02;;;;;;;;;5.00;5.00;;;;;;;;6279804;22;47028;-80
2021/09/06 16:16:27;;;;;;;;;6.75;6.75;;;;;;;;6323440;22;46923;-80
2021/09/06 16:18:53;;;;;;;;;8.00;8.00;;;;;;;;6339387;22;46921;-80
2021/09/06 16:21:18;;;;;;;;;7.50;7.50;;;;;;;;6338892;22;46831;-80
2021/09/06 16:23:43;;;;;;;;;7.00;6.25;;;;;;;;6339656;22;46922;-80
2021/09/06 16:26:09;;;;;;;;;6.25;4.75;;;;;;;;6339541;22;46846;-80
2021/09/06 16:28:34;;;;;;;;;8.75;7.50;;;;;;;;6339246;22;47558;-80
2021/09/06 16:31:00;;;;;;;;;10.00;8.00;;;;;;;;6339507;22;47031;-80
2021/09/06 16:33:25;;;;;;;;;6.00;5.50;;;;;;;;6339364;22;46801;-80
2021/09/06 16:35:51;;;;;;;;;5.75;4.25;;;;;;;;6339477;22;46838;-80
2021/09/06 16:38:16;;;;;;;;;6.00;5.25;;;;;;;;6339200;22;46816;-80
2021/09/06 16:40:42;;;;;;;;;5.50;4.50;;;;;;;;6339206;22;46820;-80
2021/09/06 16:43:07;;;;;;;;;8.00;6.75;;;;;;;;6339385;22;46868;-80
2021/09/06 16:45:33;;;;;;;;;8.50;7.25;;;;;;;;6339731;22;46915;-80
2021/09/06 16:47:58;;;;;;;;;6.00;5.75;;;;;;;;6337311;22;49002;-81
2021/09/06 16:50:23;;;;;;;;;3.25;3.00;;;;;;;;6336864;22;46905;-81
2021/09/06 16:52:49;;;;;;;;;4.50;4.25;;;;;;;;6339603;22;46820;-80
2021/09/06 16:55:15;;;;;;;;;6.50;5.50;;;;;;;;6339598;22;46675;-80
2021/09/06 16:57:41;;;;;;;;;5.75;5.25;;;;;;;;6339186;22;47931;-80
2021/09/06 17:00:09;;;;;;;;;5.00;5.00;;;;;;;;6338997;22;47068;-81
2021/09/06 17:06:06;;;;;;;;;4.75;4.00;;;;;;;;6338659;22;46847;-82
2021/09/06 17:15:47;;;;;;;;;;;;;;;;;;;;;
2021/09/06 17:18:43;;;;;;;;;;;;;;;;;;;;;
2021/09/06 17:21:38;;;;;;;;;;;;;;;;;;;;;
2021/09/06 17:27:00;;;;;;;;;5.00;4.25;;;;;;;;6121032;23;46840;-81
2021/09/06 17:29:29;;;;;;;;;5.75;5.25;;;;;;;;6201793;22;47039;-81
2021/09/06 17:32:03;;;;;;;;;7.00;6.00;;;;;;;;6227002;22;48007;-81
2021/09/06 17:34:59;;;;;;;;;;;;;;;;;;;;;
2021/09/06 17:37:49;;;;;;;;;;;;;;;;;;;;;
2021/09/06 17:43:36;;;;;;;;;7.75;7.75;;;;;;;;6338288;22;46923;-82
2021/09/06 17:46:02;;;;;;;;;6.00;4.75;;;;;;;;6328037;22;46817;-81
2021/09/06 17:48:30;;;;;;;;;4.50;4.25;;;;;;;;6338842;22;46779;-81
2021/09/06 17:50:56;;;;;;;;;6.00;6.00;;;;;;;;6336983;22;47144;-81
2021/09/06 17:53:23;;;;;;;;;10.75;7.50;;;;;;;;6338590;22;46871;-81
2021/09/06 17:55:56;;;;;;;;;10.00;7.00;;;;;;;;6338768;22;46886;-82
2021/09/06 17:58:22;;;;;;;;;6.75;6.75;;;;;;;;6336698;22;46964;-81
2021/09/06 18:00:49;;;;;;;;;10.50;8.00;;;;;;;;6338857;22;46921;-81
2021/09/06 18:03:14;;;;;;;;;9.00;8.00;;;;;;;;6336560;22;48332;-81
2021/09/06 18:05:54;;;;;;;;;9.00;7.50;;;;;;;;6338497;22;46753;-81
2021/09/06 18:08:19;;;;;;;;;8.50;6.00;;;;;;;;6336688;22;46799;-82
2021/09/06 18:10:45;;;;;;;;;5.00;5.00;;;;;;;;6337107;22;46812;-81
2021/09/06 18:13:20;;;;;;;;;;;;;;;;;;;;;
2021/09/06 18:15:48;;;;;;;;;7.50;6.50;;;;;;;;6336427;22;74569;-82
2021/09/06 18:18:16;;;;;;;;;7.00;5.00;;;;;;;;6339194;22;46928;-81
2021/09/06 18:20:52;;;;;;;;;8.50;7.75;;;;;;;;6336554;22;47144;-81
2021/09/06 18:23:20;;;;;;;;;11.00;9.75;;;;;;;;6338388;22;46941;-81
2021/09/06 18:26:30;;;;;;;;;8.50;6.75;;;;;;;;6336578;22;47418;-82
2021/09/06 18:28:55;;;;;;;;;8.00;6.75;;;;;;;;6337182;22;46990;-81
2021/09/06 18:31:23;;;;;;;;;5.25;5.25;;;;;;;;6339054;22;47118;-80
2021/09/06 18:33:48;;;;;;;;;6.50;6.50;;;;;;;;6338539;22;46850;-80
2021/09/06 18:36:14;;;;;;;;;7.00;6.50;;;;;;;;6335993;22;47589;-80
2021/09/06 18:38:39;;;;;;;;;4.00;4.00;;;;;;;;6338654;22;46809;-80
2021/09/06 18:41:06;;;;;;;;;8.25;6.00;;;;;;;;6338774;22;46926;-81
2021/09/06 18:43:32;;;;;;;;;7.75;7.00;;;;;;;;6336094;22;48707;-80
2021/09/06 18:45:58;;;;;;;;;5.75;5.25;;;;;;;;6338631;22;46823;-80
2021/09/06 18:48:24;;;;;;;;;6.00;5.00;;;;;;;;6338347;22;47013;-81
2021/09/06 18:50:52;;;;;;;;;8.25;6.25;;;;;;;;6339450;22;47208;-81
2021/09/06 18:53:19;;;;;;;;;8.75;8.75;;;;;;;;6339854;22;46947;-81
2021/09/06 18:55:45;;;;;;;;;7.00;5.75;;;;;;;;6337336;22;47757;-81
2021/09/06 19:07:15;;;;;;;;;9.25;8.00;;;;;;;;6326919;22;46998;-81
2021/09/06 19:09:52;;;;;;;;;;;;;;;;;;;;;
2021/09/06 19:12:21;;;;;;;;;8.50;7.25;;;;;;;;6338681;22;68824;-81
2021/09/06 19:14:49;;;;;;;;;11.25;9.50;;;;;;;;6339834;22;46863;-81
2021/09/06 19:17:17;;;;;;;;;12.50;10.25;;;;;;;;6338854;22;47075;-81
2021/09/06 19:19:45;;;;;;;;;9.00;9.00;;;;;;;;6338868;22;46988;-82
2021/09/06 19:22:23;;;;;;;;;;;;;;;;;;;;;
2021/09/06 19:24:51;;;;;;;;;9.25;9.25;;;;;;;;6337517;22;76847;-81
2021/09/06 19:27:30;;;;;;;;;13.00;11.00;;;;;;;;6339422;22;47030;-80
2021/09/06 19:30:35;;;;;;;;;;;;;;;;;;;;;
2021/09/06 19:39:31;;;;;;;;;8.50;8.50;;;;;;;;6209866;22;47030;-81
2021/09/06 19:45:32;;;;;;;;;;;;;;;;;;;;;
2021/09/06 19:48:21;;;;;;;;;9.25;8.00;;;;;;;;6210751;22;76885;-81
2021/09/06 19:51:03;;;;;;;;;;;;;;;;;;;;;
2021/09/06 19:53:55;;;;;;;;;11.00;9.50;;;;;;;;6338349;22;72707;-81
2021/09/06 19:56:53;;;;;;;;;;;;;;;;;;;;;
2021/09/06 19:59:21;;;;;;;;;8.00;7.00;;;;;;;;6337187;22;76035;-81
2021/09/06 20:08:01;;;;;;;;;9.00;9.00;;;;;;;;6314201;22;47269;-80
2021/09/06 20:10:27;;;;;;;;;9.25;8.75;;;;;;;;6338754;22;46758;-81
2021/09/06 20:16:30;;;;;;;;;7.25;6.75;;;;;;;;6118907;23;46823;-81
2021/09/06 20:19:33;;;;;;;;;9.25;9.25;;;;;;;;6093743;23;46926;-81
2021/09/06 20:28:52;;;;;;;;;;;;;;;;;;;;;
2021/09/06 20:31:17;;;;;;;;;8.25;7.00;;;;;;;;6029273;23;68708;-79
2021/09/06 20:33:43;;;;;;;;;9.75;8.50;;;;;;;;6246878;22;47870;-81
2021/09/06 20:36:18;;;;;;;;;10.00;9.00;;;;;;;;6338478;22;46907;-81
2021/09/06 20:38:54;;;;;;;;;;;;;;;;;;;;;
2021/09/06 20:41:20;;;;;;;;;11.25;10.00;;;;;;;;6337892;22;68843;-81
2021/09/06 20:43:45;;;;;;;;;8.50;8.00;;;;;;;;6338643;22;46906;-81
2021/09/06 20:46:10;;;;;;;;;9.75;7.25;;;;;;;;6337066;22;46781;-81
2021/09/06 20:48:38;;;;;;;;;10.00;8.25;;;;;;;;6339230;22;46842;-81
2021/09/06 20:51:04;;;;;;;;;7.25;7.00;;;;;;;;6339093;22;46819;-81
2021/09/06 20:53:37;;;;;;;;;8.25;7.25;;;;;;;;6336889;22;48609;-81
2021/09/06 20:56:05;;;;;;;;;8.00;7.25;;;;;;;;6339250;22;46903;-81
2021/09/06 20:58:33;;;;;;;;;8.00;8.00;;;;;;;;6336630;22;46873;-81
2021/09/06 21:01:01;;;;;;;;;9.75;7.50;;;;;;;;6337217;22;46896;-82
2021/09/06 21:03:59;;;;;;;;;;;;;;;;;;;;;
2021/09/06 21:06:27;;;;;;;;;7.00;7.00;;;;;;;;6328717;22;73895;-80
2021/09/06 21:08:52;;;;;;;;;14.00;9.50;;;;;;;;6335298;22;46935;-81
2021/09/06 21:12:09;;;;;;;;;;;;;;;;;;;;;
2021/09/06 21:14:33;;;;;;;;;10.25;9.00;;;;;;;;6324847;22;47260;-80
2021/09/06 21:17:40;;;;;;;;;;;;;;;;;;;;;
2021/09/06 21:23:52;;;;;;;;;;;;;;;;;;;;;
2021/09/06 21:27:00;;;;;;;;;;;;;;;;;;;;;
2021/09/06 21:30:53;;;;;;;;;8.75;7.50;;;;;;;;6337266;22;74553;-81
2021/09/06 21:33:15;;;;;;;;;;;;;;;;;;;;;
2021/09/06 21:36:00;;;;;;;;;;;;;;;;;;;;;
2021/09/06 21:50:56;;;;;;;;;16.00;13.00;;;;;;;;6176179;22;47561;-79
2021/09/06 22:00:39;;;;;;;;;23.25;18.50;;;;;;;;6153922;23;46950;-83
2021/09/06 22:09:45;;;;;;;;;28.75;25.00;;;;;;;;6108777;23;47100;-79
2021/09/06 22:46:53;;;;;;;;;;;;;;;;;;;;;
2021/09/06 22:49:56;;;;;;;;;6.50;3.50;;;;;;;;6229777;22;68737;-81
2021/09/06 22:52:51;;;;;;;;;;;;;;;;;;;;;
2021/09/06 22:59:02;;;;;;;;;;;;;;;;;;;;;
2021/09/06 23:01:36;;;;;;;;;;;;;;;;;;;;;
2021/09/06 23:07:08;;;;;;;;;11.75;9.50;;;;;;;;6324854;22;47021;-81
2021/09/06 23:16:15;;;;;;;;;;;;;;;;;;;;;
2021/09/06 23:22:19;;;;;;;;;8.25;7.25;;;;;;;;6288585;22;47015;-81
2021/09/06 23:31:14;;;;;;;;;7.00;6.50;;;;;;;;6288065;22;46664;-81
2021/09/06 23:40:06;;;;;;;;;9.00;8.25;;;;;;;;6284628;22;46861;-81
2021/09/06 23:42:31;;;;;;;;;7.00;5.75;;;;;;;;6307233;22;46770;-80
2021/09/06 23:44:57;;;;;;;;;9.50;8.50;;;;;;;;6279140;22;46904;-80
2021/09/06 23:47:22;;;;;;;;;9.50;8.75;;;;;;;;6307722;22;47245;-80
2021/09/06 23:49:47;;;;;;;;;7.50;7.00;;;;;;;;6278997;22;49289;-80
2021/09/06 23:52:15;;;;;;;;;8.00;8.00;;;;;;;;6307971;22;46828;-80
2021/09/06 23:54:40;;;;;;;;;10.50;9.00;;;;;;;;6307471;22;46762;-80
2021/09/06 23:57:06;;;;;;;;;10.00;7.50;;;;;;;;6307886;22;46737;-80
2021/09/06 23:59:31;;;;;;;;;10.50;9.00;;;;;;;;6307101;22;46954;-79
